Cornish, Minnesota
Current Conditions -  °F | °C
As of 6:06 AM on Sunday 23 Nov 2014 (Local Time) from KHZX Reporting Station
Overcast Overcast  
Wind Chill: 36°   Ceiling: 500
Heat Index: 36°   Visibility: 0.75mi
Dew Point: 36°   Wind: 0mph
Humidity: 100%   Direction: NA
Pressure: 29.4"   Gusts: NA
Location:  46.9333°N, 93.1876°W
Report Text: KHZX 231206Z AUTO 00000KT 3/4SM OVC005 02/02 A2940 RMK AO2
Loading
Personal Weather Stations






























Interactive Weather Map New forecast layout! Learn more

10-Day Weather Forecast

Advertisements
Track Severe Weather on mobile